Time;durP1;ratioP1;P1;durP2;ratioP2;P2;SDS_P1;SDS_P2;PMS_P1;PMS_P2;Temp;Humidity;BMP_temperature;BMP_pressure;BME280_temperature;BME280_humidity;BME280_pressure;Samples;Min_cycle;Max_cycle;Signal;HPM_P1;HPM_P2
2021/08/05 00:01:50;;;;;;;;;;;;;;;18.95;70.71;97699.75;1775891;80;24376;-85
2021/08/05 00:04:16;;;;;;;;;;;;;;;19.02;70.72;97698.55;1768890;80;22066;-85
2021/08/05 00:06:42;;;;;;;;;;;;;;;19.02;70.75;97703.35;1771943;80;21286;-85
2021/08/05 00:09:09;;;;;;;;;;;;;;;18.89;70.82;97692.50;1754531;80;25066;-85
2021/08/05 00:11:35;;;;;;;;;;;;;;;18.77;70.89;97694.73;1774926;80;20223;-85
2021/08/05 00:14:01;;;;;;;;;;;;;;;18.68;70.96;97690.50;1763758;80;20323;-86
2021/08/05 00:16:27;;;;;;;;;;;;;;;18.64;71.04;97688.39;1770590;80;20227;-86
2021/08/05 00:18:53;;;;;;;;;;;;;;;18.65;71.13;97688.72;1770691;80;25983;-86
2021/08/05 00:21:19;;;;;;;;;;;;;;;18.67;71.25;97692.83;1769317;80;24490;-85
2021/08/05 00:23:46;;;;;;;;;;;;;;;18.68;71.36;97695.80;1764274;80;20291;-85
2021/08/05 00:26:12;;;;;;;;;;;;;;;18.67;71.45;97686.20;1778645;80;24760;-85
2021/08/05 00:28:39;;;;;;;;;;;;;;;18.60;71.57;97688.42;1775512;80;21999;-85
2021/08/05 00:31:11;;;;;;;;;;;;;;;18.49;71.66;97681.67;1767510;80;26775;-86
2021/08/05 00:33:37;;;;;;;;;;;;;;;18.39;71.77;97681.04;1775752;80;24490;-85
2021/08/05 00:36:03;;;;;;;;;;;;;;;18.33;71.88;97683.05;1773404;80;20234;-85
2021/08/05 00:38:29;;;;;;;;;;;;;;;18.29;72.00;97679.94;1768213;80;24925;-85
2021/08/05 00:40:55;;;;;;;;;;;;;;;18.24;72.12;97678.81;1763252;80;20309;-85
2021/08/05 00:43:22;;;;;;;;;;;;;;;18.20;72.26;97680.99;1774269;80;26078;-85
2021/08/05 00:45:48;;;;;;;;;;;;;;;18.16;72.42;97677.55;1776053;80;24424;-85
2021/08/05 00:48:14;;;;;;;;;;;;;;;18.12;72.56;97672.24;1776724;80;20664;-86
2021/08/05 00:50:40;;;;;;;;;;;;;;;18.10;72.68;97668.47;1786858;80;24787;-85
2021/08/05 00:53:07;;;;;;;;;;;;;;;18.12;72.83;97665.62;1805808;78;22021;-85
2021/08/05 00:55:33;;;;;;;;;;;;;;;18.14;73.01;97663.14;1784912;79;26748;-85
2021/08/05 00:57:59;;;;;;;;;;;;;;;18.12;73.13;97659.00;1792350;79;20287;-85
2021/08/05 01:00:31;;;;;;;;;;;;;;;18.07;73.26;97657.38;1811570;79;20300;-85
2021/08/05 01:03:05;;;;;;;;;;;;;;;18.02;73.40;97659.72;1805437;79;24780;-85
2021/08/05 01:05:32;;;;;;;;;;;;;;;17.98;73.55;97651.30;1809228;79;21980;-85
2021/08/05 01:08:01;;;;;;;;;;;;;;;17.97;73.71;97645.19;1801799;79;26027;-85
2021/08/05 01:10:28;;;;;;;;;;;;;;;17.98;73.88;97645.52;1808451;79;24438;-85
2021/08/05 01:12:56;;;;;;;;;;;;;;;17.96;74.02;97636.91;1813186;77;20243;-85
2021/08/05 01:15:24;;;;;;;;;;;;;;;17.95;74.15;97638.39;1799852;79;25344;-86
2021/08/05 01:17:56;;;;;;;;;;;;;;;17.94;74.26;97639.42;1799841;79;22937;-86
2021/08/05 01:20:21;;;;;;;;;;;;;;;17.90;74.39;97627.50;1803935;78;26033;-86
2021/08/05 01:22:49;;;;;;;;;;;;;;;17.88;74.53;97637.45;1812130;78;25206;-86
2021/08/05 01:25:23;;;;;;;;;;;;;;;17.86;74.67;97632.83;1809463;78;20303;-85
2021/08/05 01:27:52;;;;;;;;;;;;;;;17.85;74.82;97625.88;1774474;79;24762;-86
2021/08/05 01:30:18;;;;;;;;;;;;;;;17.80;74.95;97628.21;1807289;78;21949;-86
2021/08/05 01:32:45;;;;;;;;;;;;;;;17.79;75.09;97626.06;1768401;80;25998;-86
2021/08/05 01:35:12;;;;;;;;;;;;;;;17.82;75.23;97627.55;1759457;80;24259;-86
2021/08/05 01:37:40;;;;;;;;;;;;;;;17.81;75.36;97625.41;1791729;78;20224;-85
2021/08/05 01:40:07;;;;;;;;;;;;;;;17.79;75.46;97622.09;1802823;78;25866;-86
2021/08/05 01:42:33;;;;;;;;;;;;;;;17.74;75.56;97616.49;1802117;79;21966;-86
2021/08/05 01:45:02;;;;;;;;;;;;;;;17.68;75.69;97615.02;1810212;79;26927;-86
2021/08/05 01:47:29;;;;;;;;;;;;;;;17.62;75.80;97612.56;1811286;79;25526;-86
2021/08/05 01:49:56;;;;;;;;;;;;;;;17.63;75.92;97614.71;1814510;78;20269;-85
2021/08/05 01:52:22;;;;;;;;;;;;;;;17.66;76.07;97619.19;1810997;79;24820;-86
2021/08/05 01:54:48;;;;;;;;;;;;;;;17.69;76.17;97621.48;1805869;78;22170;-86
2021/08/05 01:57:15;;;;;;;;;;;;;;;17.72;76.29;97613.70;1814123;78;25979;-86
2021/08/05 01:59:47;;;;;;;;;;;;;;;17.75;76.41;97613.34;1799365;78;24480;-86
2021/08/05 02:02:14;;;;;;;;;;;;;;;17.77;76.51;97608.72;1794906;79;20311;-86
2021/08/05 02:04:44;;;;;;;;;;;;;;;17.81;76.62;97610.02;1803588;78;24736;-86
2021/08/05 02:07:12;;;;;;;;;;;;;;;17.82;76.71;97599.27;1769866;80;22226;-86
2021/08/05 02:09:49;;;;;;;;;;;;;;;17.86;76.81;97595.27;1778798;80;26881;-86
2021/08/05 02:12:17;;;;;;;;;;;;;;;17.90;76.91;97595.23;1780946;80;24652;-86
2021/08/05 02:14:43;;;;;;;;;;;;;;;18.01;76.99;97599.31;1781108;80;20431;-86
2021/08/05 02:17:13;;;;;;;;;;;;;;;18.06;77.08;97600.11;1808898;78;25007;-86
2021/08/05 02:19:39;;;;;;;;;;;;;;;18.05;77.13;97594.52;1810071;78;22004;-86
2021/08/05 02:22:05;;;;;;;;;;;;;;;17.97;77.19;97585.61;1807400;78;26190;-86
2021/08/05 02:24:33;;;;;;;;;;;;;;;17.88;77.22;97577.89;1767846;80;25135;-86
2021/08/05 02:27:00;;;;;;;;;;;;;;;17.79;77.26;97570.48;1771457;79;20528;-86
2021/08/05 02:29:27;;;;;;;;;;;;;;;17.81;77.33;97570.31;1769666;80;24716;-87
2021/08/05 02:31:54;;;;;;;;;;;;;;;17.84;77.42;97568.14;1808012;78;21913;-86
2021/08/05 02:34:23;;;;;;;;;;;;;;;17.89;77.53;97565.79;1803308;78;25992;-87
2021/08/05 02:36:49;;;;;;;;;;;;;;;17.88;77.60;97566.81;1804055;78;24492;-86
2021/08/05 02:39:15;;;;;;;;;;;;;;;17.90;77.66;97566.61;1808102;78;20837;-86
2021/08/05 02:41:42;;;;;;;;;;;;;;;17.90;77.74;97569.27;1805857;78;20232;-86
2021/08/05 02:44:08;;;;;;;;;;;;;;;17.90;77.81;97567.94;1800515;78;21995;-86
2021/08/05 02:46:34;;;;;;;;;;;;;;;17.92;77.91;97566.78;1798657;78;26038;-87
2021/08/05 02:49:01;;;;;;;;;;;;;;;17.94;77.96;97570.59;1804765;78;24401;-88
2021/08/05 02:51:27;;;;;;;;;;;;;;;17.95;78.05;97562.45;1799182;79;20197;-87
2021/08/05 02:53:59;;;;;;;;;;;;;;;17.94;78.10;97564.80;1792852;79;24928;-87
2021/08/05 02:56:26;;;;;;;;;;;;;;;17.90;78.17;97565.30;1813434;79;22801;-87
2021/08/05 02:58:54;;;;;;;;;;;;;;;17.84;78.22;97565.48;1803018;79;21734;-87
2021/08/05 03:01:22;;;;;;;;;;;;;;;17.79;78.29;97571.80;1811620;79;24452;-87
2021/08/05 03:03:52;;;;;;;;;;;;;;;17.79;78.37;97574.45;1760574;81;20221;-86
2021/08/05 03:06:23;;;;;;;;;;;;;;;17.83;78.45;97575.77;1812957;78;24838;-86
2021/08/05 03:08:49;;;;;;;;;;;;;;;17.85;78.53;97576.41;1795164;78;22104;-86
2021/08/05 03:11:15;;;;;;;;;;;;;;;17.82;78.61;97572.80;1800492;79;21255;-86
2021/08/05 03:13:41;;;;;;;;;;;;;;;17.77;78.69;97568.52;1768867;80;24527;-86
2021/08/05 03:16:07;;;;;;;;;;;;;;;17.70;78.77;97557.47;1788053;79;20289;-86
2021/08/05 03:18:33;;;;;;;;;;;;;;;17.63;78.83;97560.47;1811934;79;20680;-86
2021/08/05 03:21:00;;;;;;;;;;;;;;;17.55;78.92;97552.88;1813539;79;21914;-86
2021/08/05 03:23:27;;;;;;;;;;;;;;;17.46;79.03;97543.31;1811694;78;21415;-86
2021/08/05 03:25:53;;;;;;;;;;;;;;;17.40;79.09;97543.20;1810674;79;24485;-87
2021/08/05 03:28:19;;;;;;;;;;;;;;;17.40;79.24;97547.97;1812346;79;20865;-86
2021/08/05 03:30:48;;;;;;;;;;;;;;;17.40;79.35;97548.49;1815508;79;24818;-86
2021/08/05 03:33:20;;;;;;;;;;;;;;;17.36;79.46;97536.58;1815438;79;21513;-86
2021/08/05 03:35:46;;;;;;;;;;;;;;;17.34;79.58;97530.16;1807647;79;26133;-87
2021/08/05 03:38:12;;;;;;;;;;;;;;;17.31;79.72;97527.02;1798112;79;24721;-87
2021/08/05 03:40:38;;;;;;;;;;;;;;;17.28;79.82;97526.05;1771649;80;20299;-87
2021/08/05 03:43:06;;;;;;;;;;;;;;;17.26;79.92;97530.17;1770553;80;25460;-87
2021/08/05 03:45:32;;;;;;;;;;;;;;;17.31;80.03;97531.81;1809165;79;21969;-86
2021/08/05 03:47:58;;;;;;;;;;;;;;;17.35;80.16;97524.34;1799869;79;26816;-88
2021/08/05 03:50:32;;;;;;;;;;;;;;;17.31;80.24;97513.80;1772567;80;20362;-87
2021/08/05 03:52:58;;;;;;;;;;;;;;;17.26;80.34;97505.55;1776654;80;20242;-86
2021/08/05 03:55:26;;;;;;;;;;;;;;;17.22;80.46;97507.73;1795262;79;20603;-86
2021/08/05 03:57:52;;;;;;;;;;;;;;;17.19;80.53;97501.44;1799125;78;22205;-87
2021/08/05 04:00:18;;;;;;;;;;;;;;;17.19;80.63;97492.68;1777552;80;26032;-87
2021/08/05 04:02:47;;;;;;;;;;;;;;;17.16;80.74;97491.22;1813842;79;24540;-86
2021/08/05 04:05:13;;;;;;;;;;;;;;;17.17;80.82;97490.72;1812018;79;20327;-87
2021/08/05 04:07:39;;;;;;;;;;;;;;;17.22;80.94;97488.39;1812575;79;20236;-88
2021/08/05 04:10:06;;;;;;;;;;;;;;;17.15;81.02;97476.34;1811909;79;21961;-86
2021/08/05 04:12:32;;;;;;;;;;;;;;;17.12;81.13;97466.95;1810409;79;26033;-86
2021/08/05 04:14:58;;;;;;;;;;;;;;;17.06;81.20;97461.03;1808774;79;24556;-87
2021/08/05 04:17:25;;;;;;;;;;;;;;;16.99;81.29;97450.80;1804908;79;32628;-87
2021/08/05 04:19:51;;;;;;;;;;;;;;;16.91;81.40;97438.92;1802130;79;24904;-87
2021/08/05 04:22:17;;;;;;;;;;;;;;;16.89;81.49;97446.71;1796006;79;21974;-87
2021/08/05 04:24:43;;;;;;;;;;;;;;;16.92;81.60;97452.97;1748271;80;21101;-87
2021/08/05 04:27:09;;;;;;;;;;;;;;;16.91;81.72;97460.06;1764575;80;20286;-87
2021/08/05 04:29:35;;;;;;;;;;;;;;;16.95;81.83;97471.97;1806048;79;20902;-87
2021/08/05 04:32:03;;;;;;;;;;;;;;;17.03;81.91;97504.14;1797297;79;24755;-87
2021/08/05 04:34:29;;;;;;;;;;;;;;;17.21;82.04;97511.36;1790601;79;22691;-87
2021/08/05 04:36:58;;;;;;;;;;;;;;;17.26;82.11;97498.94;1780993;79;26180;-87
2021/08/05 04:39:24;;;;;;;;;;;;;;;17.23;82.20;97486.08;1812075;79;24452;-87
2021/08/05 04:41:50;;;;;;;;;;;;;;;17.23;82.26;97476.82;1766645;79;20468;-87
2021/08/05 04:44:18;;;;;;;;;;;;;;;17.25;82.32;97469.52;1794353;79;24911;-87
2021/08/05 04:46:44;;;;;;;;;;;;;;;17.26;82.38;97460.09;1804908;79;22739;-87
2021/08/05 04:49:13;;;;;;;;;;;;;;;17.23;82.44;97456.98;1771354;79;26782;-87
2021/08/05 04:51:42;;;;;;;;;;;;;;;17.19;82.49;97453.84;1759291;81;24468;-87
2021/08/05 04:54:08;;;;;;;;;;;;;;;17.25;82.54;97462.91;1802551;79;20277;-87
2021/08/05 04:56:35;;;;;;;;;;;;;;;17.27;82.64;97465.72;1804433;79;24708;-88
2021/08/05 04:59:01;;;;;;;;;;;;;;;17.28;82.68;97467.88;1806488;79;21935;-87
2021/08/05 05:01:27;;;;;;;;;;;;;;;17.33;82.75;97484.05;1802491;79;25918;-87
2021/08/05 05:03:53;;;;;;;;;;;;;;;17.43;82.82;97485.97;1791561;79;20301;-87
2021/08/05 05:06:19;;;;;;;;;;;;;;;17.46;82.87;97473.22;1788196;79;20463;-87
2021/08/05 05:08:47;;;;;;;;;;;;;;;17.47;82.93;97466.10;1802259;79;24757;-87
2021/08/05 05:11:13;;;;;;;;;;;;;;;17.42;82.96;97440.18;1776175;80;21979;-87
2021/08/05 05:13:39;;;;;;;;;;;;;;;17.32;82.97;97432.97;1797823;79;20916;-86
2021/08/05 05:16:05;;;;;;;;;;;;;;;17.30;83.01;97435.45;1816372;79;20280;-86
2021/08/05 05:18:31;;;;;;;;;;;;;;;17.32;83.08;97438.75;1809719;79;20230;-86
2021/08/05 05:20:57;;;;;;;;;;;;;;;17.34;83.13;97434.13;1793224;79;20238;-86
2021/08/05 05:23:23;;;;;;;;;;;;;;;17.41;83.21;97457.04;1797947;79;22055;-87
2021/08/05 05:25:49;;;;;;;;;;;;;;;17.56;83.29;97459.79;1799109;79;21024;-87
2021/08/05 05:28:15;;;;;;;;;;;;;;;17.53;83.33;97438.46;1802230;79;24468;-87
2021/08/05 05:30:48;;;;;;;;;;;;;;;17.46;83.36;97430.06;1793148;79;20525;-86
2021/08/05 05:33:14;;;;;;;;;;;;;;;17.40;83.40;97428.14;1796132;79;24840;-87
2021/08/05 05:35:40;;;;;;;;;;;;;;;17.39;83.44;97418.55;1776327;80;20735;-87
2021/08/05 05:38:07;;;;;;;;;;;;;;;17.36;83.50;97414.42;1815401;79;26084;-87
2021/08/05 05:40:36;;;;;;;;;;;;;;;17.34;83.53;97407.18;1798195;79;24515;-87
2021/08/05 05:43:04;;;;;;;;;;;;;;;17.35;83.58;97405.33;1803977;79;20197;-86
2021/08/05 05:45:30;;;;;;;;;;;;;;;17.32;83.66;97407.02;1797694;79;24759;-86
2021/08/05 05:47:57;;;;;;;;;;;;;;;17.27;83.70;97408.04;1794604;79;23338;-87
2021/08/05 05:50:23;;;;;;;;;;;;;;;17.31;83.78;97422.06;1798133;79;25798;-86
2021/08/05 05:52:49;;;;;;;;;;;;;;;17.36;83.86;97422.36;1804652;79;24566;-86
2021/08/05 05:55:16;;;;;;;;;;;;;;;17.34;83.93;97403.21;1801782;79;20257;-86
2021/08/05 05:57:44;;;;;;;;;;;;;;;17.30;84.00;97393.95;1796443;79;24989;-86
2021/08/05 06:00:11;;;;;;;;;;;;;;;17.30;84.05;97395.77;1796843;79;22738;-86
2021/08/05 06:02:37;;;;;;;;;;;;;;;17.30;84.14;97379.91;1796550;79;26090;-86
2021/08/05 06:05:03;;;;;;;;;;;;;;;17.30;84.23;97379.91;1796531;79;24419;-86
2021/08/05 06:07:29;;;;;;;;;;;;;;;17.33;84.31;97374.28;1794601;79;20229;-86
2021/08/05 06:09:58;;;;;;;;;;;;;;;17.33;84.40;97375.61;1802098;79;24895;-87
2021/08/05 06:12:27;;;;;;;;;;;;;;;17.36;84.49;97373.92;1772028;80;22006;-86
2021/08/05 06:14:53;;;;;;;;;;;;;;;17.39;84.59;97375.73;1756919;80;20988;-86
2021/08/05 06:17:19;;;;;;;;;;;;;;;17.41;84.68;97386.13;1806202;79;20252;-86
2021/08/05 06:19:45;;;;;;;;;;;;;;;17.48;84.73;97391.87;1804161;79;20825;-89
2021/08/05 06:22:11;;;;;;;;;;;;;;;17.53;84.80;97389.52;1812142;79;20240;-89
2021/08/05 06:24:37;;;;;;;;;;;;;;;17.56;84.87;97397.09;1810425;79;20240;-89
2021/08/05 06:27:05;;;;;;;;;;;;;;;17.60;84.93;97404.23;1774096;80;25862;-89
2021/08/05 06:29:32;;;;;;;;;;;;;;;17.63;85.00;97416.27;1799473;79;24455;-90
2021/08/05 06:31:58;;;;;;;;;;;;;;;17.67;85.04;97412.29;1806888;79;20505;-90
2021/08/05 06:34:25;;;;;;;;;;;;;;;17.68;85.07;97398.03;1777532;79;24709;-89
2021/08/05 06:36:52;;;;;;;;;;;;;;;17.63;85.11;97387.98;1768341;79;21991;-90
2021/08/05 06:39:19;;;;;;;;;;;;;;;17.56;85.16;97385.19;1802856;79;26146;-90
2021/08/05 06:41:48;;;;;;;;;;;;;;;17.52;85.19;97389.69;1811574;79;24948;-89
2021/08/05 06:44:14;;;;;;;;;;;;;;;17.56;85.25;97391.00;1803605;79;20351;-89
2021/08/05 06:46:40;;;;;;;;;;;;;;;17.58;85.30;97390.30;1801401;79;21530;-89
2021/08/05 06:49:06;;;;;;;;;;;;;;;17.58;85.38;97386.34;1805627;79;22121;-89
2021/08/05 06:51:32;;;;;;;;;;;;;;;17.57;85.43;97372.28;1806830;79;25962;-89
2021/08/05 06:53:59;;;;;;;;;;;;;;;17.55;85.48;97367.69;1808845;78;25600;-89
2021/08/05 06:56:29;;;;;;;;;;;;;;;17.51;85.52;97377.48;1807058;79;20297;-89
2021/08/05 06:58:56;;;;;;;;;;;;;;;17.53;85.58;97388.20;1812819;79;25279;-89
2021/08/05 07:01:22;;;;;;;;;;;;;;;17.60;85.66;97385.70;1811801;79;22053;-89
2021/08/05 07:03:48;;;;;;;;;;;;;;;17.67;85.74;97390.62;1810983;79;25948;-90
2021/08/05 07:06:14;;;;;;;;;;;;;;;17.70;85.80;97382.81;1782166;80;25179;-89
2021/08/05 07:08:40;;;;;;;;;;;;;;;17.60;85.86;97370.33;1803375;79;20673;-86
2021/08/05 07:11:06;;;;;;;;;;;;;;;17.61;85.87;97381.24;1804823;79;24799;-86
2021/08/05 07:13:32;;;;;;;;;;;;;;;17.62;85.92;97384.22;1795617;79;20903;-86
2021/08/05 07:15:58;;;;;;;;;;;;;;;17.65;85.96;97378.55;1792777;79;26012;-87
2021/08/05 07:18:24;;;;;;;;;;;;;;;17.60;86.01;97377.77;1796990;79;20813;-86
2021/08/05 07:20:51;;;;;;;;;;;;;;;17.59;86.04;97372.11;1803082;79;20264;-86
2021/08/05 07:23:17;;;;;;;;;;;;;;;17.58;86.12;97370.47;1806678;79;24802;-86
2021/08/05 07:25:44;;;;;;;;;;;;;;;17.58;86.15;97363.84;1804902;79;22011;-86
2021/08/05 07:28:10;;;;;;;;;;;;;;;17.60;86.20;97361.06;1768156;80;25744;-87
2021/08/05 07:30:38;;;;;;;;;;;;;;;17.57;86.26;97359.55;1799533;79;25095;-86
2021/08/05 07:33:04;;;;;;;;;;;;;;;17.57;86.34;97366.17;1768737;80;20288;-86
2021/08/05 07:35:30;;;;;;;;;;;;;;;17.58;86.40;97366.49;1763577;80;20878;-86
2021/08/05 07:37:56;;;;;;;;;;;;;;;17.56;86.45;97355.28;1772527;80;20284;-86
2021/08/05 07:40:22;;;;;;;;;;;;;;;17.56;86.50;97352.11;1797811;79;26134;-86
2021/08/05 07:42:48;;;;;;;;;;;;;;;17.55;86.59;97353.14;1807242;79;25421;-86
2021/08/05 07:45:16;;;;;;;;;;;;;;;17.50;86.63;97350.70;1770592;80;20207;-87
2021/08/05 07:47:42;;;;;;;;;;;;;;;17.50;86.70;97344.09;1802817;79;25470;-86
2021/08/05 07:50:10;;;;;;;;;;;;;;;17.46;86.77;97344.92;1812781;78;22532;-86
2021/08/05 07:52:36;;;;;;;;;;;;;;;17.44;86.84;97348.75;1817240;78;26693;-87
2021/08/05 07:55:06;;;;;;;;;;;;;;;17.42;86.91;97353.39;1806656;78;24545;-86
2021/08/05 07:57:33;;;;;;;;;;;;;;;17.40;86.97;97344.30;1817456;78;20313;-87
2021/08/05 08:00:00;;;;;;;;;;;;;;;17.30;87.03;97331.81;1809933;78;24766;-87
2021/08/05 08:02:26;;;;;;;;;;;;;;;17.37;87.11;97339.88;1814186;78;21567;-86
2021/08/05 08:04:52;;;;;;;;;;;;;;;17.33;87.18;97337.27;1799220;78;26210;-87
2021/08/05 08:07:18;;;;;;;;;;;;;;;17.31;87.23;97333.96;1803426;78;24403;-86
2021/08/05 08:09:49;;;;;;;;;;;;;;;17.29;87.30;97332.80;1799806;79;20205;-87
2021/08/05 08:12:15;;;;;;;;;;;;;;;17.28;87.37;97332.51;1802532;79;24627;-87
2021/08/05 08:14:41;;;;;;;;;;;;;;;17.32;87.43;97331.64;1802728;78;22041;-87
2021/08/05 08:17:07;;;;;;;;;;;;;;;17.30;87.53;97326.52;1811195;78;20952;-86
2021/08/05 08:19:33;;;;;;;;;;;;;;;17.28;87.60;97323.25;1806195;78;24393;-87
2021/08/05 08:22:00;;;;;;;;;;;;;;;17.26;87.68;97321.77;1808211;78;20216;-87
2021/08/05 08:24:28;;;;;;;;;;;;;;;17.24;87.75;97316.64;1773602;80;24748;-87
2021/08/05 08:26:54;;;;;;;;;;;;;;;17.26;87.83;97311.19;1809995;78;22685;-87
2021/08/05 08:29:20;;;;;;;;;;;;;;;17.30;87.94;97309.33;1801774;78;26015;-87
2021/08/05 08:31:48;;;;;;;;;;;;;;;17.34;88.00;97307.18;1804526;78;20291;-89
2021/08/05 08:34:14;;;;;;;;;;;;;;;17.39;88.09;97306.15;1805457;78;20297;-89
2021/08/05 08:36:42;;;;;;;;;;;;;;;17.41;88.19;97304.13;1800555;78;24790;-88
2021/08/05 08:39:08;;;;;;;;;;;;;;;17.44;88.27;97299.33;1807309;78;22788;-89
2021/08/05 08:41:35;;;;;;;;;;;;;;;17.43;88.33;97298.17;1806665;79;26183;-88
2021/08/05 08:44:01;;;;;;;;;;;;;;;17.44;88.38;97299.82;1806210;79;24668;-89
2021/08/05 08:46:31;;;;;;;;;;;;;;;17.47;88.43;97296.80;1798338;78;20512;-88
2021/08/05 08:48:57;;;;;;;;;;;;;;;17.51;88.53;97298.13;1793309;79;24738;-89
2021/08/05 08:51:24;;;;;;;;;;;;;;;17.49;88.59;97290.35;1803121;79;21987;-89
2021/08/05 08:53:51;;;;;;;;;;;;;;;17.49;88.63;97282.91;1796702;79;25959;-89
2021/08/05 08:56:17;;;;;;;;;;;;;;;17.50;88.68;97285.89;1773758;80;24497;-89
2021/08/05 08:58:43;;;;;;;;;;;;;;;17.49;88.75;97285.06;1817620;78;20463;-88
2021/08/05 09:01:12;;;;;;;;;;;;;;;17.54;88.80;97287.17;1808065;78;24901;-89
2021/08/05 09:03:39;;;;;;;;;;;;;;;17.61;88.86;97282.02;1819151;78;20279;-89
2021/08/05 09:06:05;;;;;;;;;;;;;;;17.66;88.92;97295.53;1777600;78;26462;-91
2021/08/05 09:08:31;;;;;;;;;;;;;;;17.70;88.99;97292.34;1819367;78;24477;-89
2021/08/05 09:11:02;;;;;;;;;;;;;;;17.76;89.03;97293.45;1819251;78;20300;-89
2021/08/05 09:13:30;;;;;;;;;;;;;;;17.76;89.08;97283.69;1818051;77;24813;-89
2021/08/05 09:15:56;;;;;;;;;;;;;;;17.82;89.13;97286.95;1797728;78;22116;-89
2021/08/05 09:18:34;;;;;;;;;;;;;;;17.85;89.20;97285.25;1818892;78;27031;-89
2021/08/05 09:21:07;;;;;;;;;;;;;;;17.90;89.23;97282.88;1806506;78;24499;-89
2021/08/05 09:23:47;;;;;;;;;;;;;;;17.93;89.28;97280.38;1784009;80;20205;-89
2021/08/05 09:26:24;;;;;;;;;;;;;;;17.97;89.32;97277.69;1814625;79;24741;-89
2021/08/05 09:28:51;;;;;;;;;;;;;;;18.05;89.37;97279.44;1806240;78;22105;-89
2021/08/05 09:31:19;;;;;;;;;;;;;;;18.06;89.42;97277.08;1767016;80;26620;-89
2021/08/05 09:33:45;;;;;;;;;;;;;;;18.05;89.45;97272.81;1769046;79;24535;-89
2021/08/05 09:36:27;;;;;;;;;;;;;;;18.07;89.45;97268.14;1769936;80;20813;-88
2021/08/05 09:38:54;;;;;;;;;;;;;;;18.12;89.48;97263.12;1785589;80;24616;-89
2021/08/05 09:41:20;;;;;;;;;;;;;;;18.19;89.53;97265.36;1785777;78;20925;-88
2021/08/05 09:43:46;;;;;;;;;;;;;;;18.25;89.57;97258.84;1788156;78;26819;-88
2021/08/05 09:46:13;;;;;;;;;;;;;;;18.30;89.61;97263.58;1797334;78;24519;-88
2021/08/05 09:48:45;;;;;;;;;;;;;;;18.33;89.65;97259.22;1773834;78;20217;-88
2021/08/05 09:51:16;;;;;;;;;;;;;;;18.35;89.65;97259.38;1778119;80;24835;-88
2021/08/05 09:53:57;;;;;;;;;;;;;;;18.40;89.69;97257.48;1792120;79;22741;-89
2021/08/05 09:56:24;;;;;;;;;;;;;;;18.42;89.71;97258.14;1793195;78;26012;-88
2021/08/05 09:58:52;;;;;;;;;;;;;;;18.42;89.69;97258.14;1779913;80;24459;-88
2021/08/05 10:01:24;;;;;;;;;;;;;;;18.47;89.69;97258.90;1769214;80;20253;-88
2021/08/05 10:03:50;;;;;;;;;;;;;;;18.48;89.69;97260.05;1815648;78;25587;-89
2021/08/05 10:06:16;;;;;;;;;;;;;;;18.52;89.73;97256.02;1815433;78;20930;-91
2021/08/05 10:08:43;;;;;;;;;;;;;;;18.62;89.75;97255.24;1813935;78;20948;-93
2021/08/05 10:11:09;;;;;;;;;;;;;;;18.68;89.79;97247.05;1814353;78;24616;-86
2021/08/05 10:13:37;;;;;;;;;;;;;;;18.69;89.83;97251.35;1814013;78;20287;-86
2021/08/05 10:16:07;;;;;;;;;;;;;;;18.71;89.85;97248.81;1816989;78;24256;-89
2021/08/05 10:18:35;;;;;;;;;;;;;;;18.71;89.87;97241.39;1817650;78;22144;-87
2021/08/05 10:21:06;;;;;;;;;;;;;;;18.70;89.86;97238.42;1811831;78;26900;-89
2021/08/05 10:23:33;;;;;;;;;;;;;;;18.69;89.86;97234.95;1815731;78;24506;-86
2021/08/05 10:26:01;;;;;;;;;;;;;;;18.73;89.89;97226.11;1815959;78;20226;-87
2021/08/05 10:28:27;;;;;;;;;;;;;;;18.79;89.93;97228.02;1812378;78;24733;-87
2021/08/05 10:30:54;;;;;;;;;;;;;;;18.82;89.96;97214.90;1816757;78;22057;-86
2021/08/05 10:33:21;;;;;;;;;;;;;;;18.82;89.98;97212.25;1757226;80;26226;-86
2021/08/05 10:35:48;;;;;;;;;;;;;;;18.80;90.03;97209.78;1744505;80;24423;-88
2021/08/05 10:38:19;;;;;;;;;;;;;;;18.80;90.03;97203.97;1770705;80;20439;-87
2021/08/05 10:40:47;;;;;;;;;;;;;;;18.82;90.08;97195.02;1801822;78;24855;-87
2021/08/05 10:43:16;;;;;;;;;;;;;;;18.80;90.11;97196.02;1808476;78;22163;-87
2021/08/05 10:45:42;;;;;;;;;;;;;;;18.82;90.15;97189.72;1783386;80;25938;-87
2021/08/05 10:48:09;;;;;;;;;;;;;;;18.85;90.17;97190.66;1777146;80;24235;-88
2021/08/05 10:50:40;;;;;;;;;;;;;;;18.87;90.22;97192.62;1804703;78;20175;-88
2021/08/05 10:53:04;;;;;;;;;;;;;;;18.91;90.26;97184.59;1776354;79;24729;-88
2021/08/05 10:55:33;;;;;;;;;;;;;;;18.94;90.30;97182.88;1801279;79;22083;-88
2021/08/05 10:58:13;;;;;;;;;;;;;;;18.98;90.35;97182.84;1760108;80;26630;-89
2021/08/05 11:00:54;;;;;;;;;;;;;;;18.97;90.41;97179.86;1765430;80;25336;-90
2021/08/05 11:03:41;;;;;;;;;;;;;;;19.05;90.46;97183.19;1770267;80;20554;-90
2021/08/05 11:06:06;;;;;;;;;;;;;;;19.15;90.54;97174.91;1802303;79;24778;-90
2021/08/05 11:08:34;;;;;;;;;;;;;;;19.26;90.59;97178.86;1804678;79;20291;-90
2021/08/05 11:11:19;;;;;;;;;;;;;;;19.32;90.67;97176.77;1800595;79;25967;-90
2021/08/05 11:13:44;;;;;;;;;;;;;;;19.35;90.72;97169.27;1795571;79;24513;-90
2021/08/05 11:16:21;;;;;;;;;;;;;;;19.43;90.75;97175.73;1762352;80;20745;-90
2021/08/05 11:18:49;;;;;;;;;;;;;;;19.46;90.75;97172.75;1791442;79;24732;-90
2021/08/05 11:21:19;;;;;;;;;;;;;;;19.49;90.79;97170.20;1785957;79;22097;-91
2021/08/05 11:23:47;;;;;;;;;;;;;;;19.48;90.81;97169.38;1795858;79;26013;-91
2021/08/05 11:26:14;;;;;;;;;;;;;;;19.48;90.82;97164.57;1800200;79;24283;-91
2021/08/05 11:28:44;;;;;;;;;;;;;;;19.49;90.80;97156.93;1815127;79;20663;-91
2021/08/05 11:31:12;;;;;;;;;;;;;;;19.51;90.82;97158.39;1816656;79;24727;-91
2021/08/05 11:33:57;;;;;;;;;;;;;;;19.56;90.84;97151.98;1812513;79;22050;-91
2021/08/05 11:36:26;;;;;;;;;;;;;;;19.55;90.81;97145.54;1808264;79;26135;-88
2021/08/05 11:39:00;;;;;;;;;;;;;;;19.47;90.81;97153.16;1810469;79;24656;-87
2021/08/05 11:41:46;;;;;;;;;;;;;;;19.42;90.75;97144.91;1813786;79;20327;-88
2021/08/05 11:44:24;;;;;;;;;;;;;;;19.39;90.70;97143.16;1810839;79;24831;-88
2021/08/05 11:47:02;;;;;;;;;;;;;;;19.34;90.68;97140.27;1782219;79;20189;-88
2021/08/05 11:49:36;;;;;;;;;;;;;;;19.30;90.65;97133.72;1809121;79;25354;-88
2021/08/05 11:52:21;;;;;;;;;;;;;;;19.22;90.61;97123.55;1800608;79;24452;-88
2021/08/05 11:54:49;;;;;;;;;;;;;;;19.20;90.59;97124.24;1798942;79;20465;-88
2021/08/05 11:57:17;;;;;;;;;;;;;;;19.21;90.60;97136.50;1798027;79;24751;-88
2021/08/05 11:59:44;;;;;;;;;;;;;;;19.22;90.60;97124.88;1799467;79;21979;-88
2021/08/05 12:02:11;;;;;;;;;;;;;;;19.27;90.64;97125.63;1799138;79;25795;-87
2021/08/05 12:04:38;;;;;;;;;;;;;;;19.27;90.63;97126.13;1795825;79;24424;-87
2021/08/05 12:07:18;;;;;;;;;;;;;;;19.29;90.67;97125.44;1801414;79;20489;-87
2021/08/05 12:09:47;;;;;;;;;;;;;;;19.27;90.64;97123.47;1799235;79;24445;-87
2021/08/05 12:12:13;;;;;;;;;;;;;;;19.23;90.66;97119.08;1791714;79;22180;-88
2021/08/05 12:14:40;;;;;;;;;;;;;;;19.12;90.63;97115.62;1798552;79;20964;-87
2021/08/05 12:17:06;;;;;;;;;;;;;;;19.06;90.56;97109.77;1799651;79;25235;-87
2021/08/05 12:19:34;;;;;;;;;;;;;;;19.00;90.55;97109.20;1799294;79;20224;-88
2021/08/05 12:22:00;;;;;;;;;;;;;;;18.91;90.54;97113.83;1778372;79;24766;-87
2021/08/05 12:24:28;;;;;;;;;;;;;;;18.84;90.48;97109.48;1798583;79;20274;-87
2021/08/05 12:26:57;;;;;;;;;;;;;;;18.75;90.46;97097.70;1793625;79;26287;-88
2021/08/05 12:29:25;;;;;;;;;;;;;;;18.68;90.44;97094.66;1797693;79;24514;-88
2021/08/05 12:31:53;;;;;;;;;;;;;;;18.64;90.43;97092.09;1796686;79;20262;-88
2021/08/05 12:34:19;;;;;;;;;;;;;;;18.66;90.44;97096.67;1800046;79;24826;-88
2021/08/05 12:36:45;;;;;;;;;;;;;;;18.65;90.46;97089.26;1774992;79;21979;-89
2021/08/05 12:39:11;;;;;;;;;;;;;;;18.63;90.49;97087.29;1799345;79;26045;-88
2021/08/05 12:41:39;;;;;;;;;;;;;;;18.57;90.52;97085.40;1791936;79;24544;-88
2021/08/05 12:44:06;;;;;;;;;;;;;;;18.49;90.51;97086.02;1797686;79;20476;-88
2021/08/05 12:46:33;;;;;;;;;;;;;;;18.40;90.49;97082.15;1796944;79;24748;-88
2021/08/05 12:49:00;;;;;;;;;;;;;;;18.38;90.49;97074.09;1797864;79;23056;-88
2021/08/05 12:51:28;;;;;;;;;;;;;;;18.35;90.51;97078.42;1801125;78;26039;-88